createdAt,value
2019-02-18T18:55:33.380Z,22.40
2019-02-18T18:58:02.068Z,22.33
2019-02-18T19:00:30.769Z,22.13
2019-02-18T19:02:59.572Z,22.80
2019-02-18T19:05:28.323Z,23.77
2019-02-18T19:07:56.954Z,24.10
2019-02-18T19:10:25.595Z,21.77
2019-02-18T19:12:54.476Z,25.00
2019-02-18T19:15:23.093Z,23.40
2019-02-18T19:17:51.790Z,23.77
2019-02-18T19:20:20.824Z,24.07
2019-02-18T19:22:49.520Z,24.17
2019-02-18T19:25:18.131Z,22.33
2019-02-18T19:27:46.796Z,23.53
2019-02-18T19:30:17.991Z,26.80
2019-02-18T19:32:47.099Z,24.77
2019-02-18T19:35:15.944Z,27.03
2019-02-18T19:37:44.626Z,25.47
2019-02-18T19:40:13.475Z,26.03
2019-02-18T19:42:42.114Z,23.60
2019-02-18T19:45:13.572Z,25.03
2019-02-18T19:47:42.747Z,23.60
2019-02-18T19:50:11.381Z,24.57
2019-02-18T19:52:40.211Z,23.37
2019-02-18T19:55:08.865Z,22.10
2019-02-18T19:57:37.570Z,21.70
2019-02-18T20:00:06.634Z,21.13
2019-02-18T20:02:35.516Z,19.70
2019-02-18T20:05:04.251Z,20.10
2019-02-18T20:07:33.103Z,18.67
2019-02-18T20:10:01.764Z,19.40
2019-02-18T20:12:30.622Z,17.37
2019-02-18T20:14:59.271Z,17.23
2019-02-18T20:17:28.201Z,17.43
2019-02-18T20:19:56.846Z,15.40
2019-02-18T20:22:25.474Z,17.47
2019-02-18T20:24:55.576Z,15.03
2019-02-18T20:27:24.562Z,15.37
2019-02-18T20:29:53.370Z,15.00
2019-02-18T20:32:22.380Z,14.73
2019-02-18T20:34:50.990Z,14.00
2019-02-18T20:37:19.896Z,13.90
2019-02-18T20:39:49.655Z,14.00
2019-02-18T20:42:18.305Z,13.47
2019-02-18T20:44:47.271Z,13.70
2019-02-18T20:47:16.163Z,13.20
2019-02-18T20:49:44.770Z,12.60
2019-02-18T20:52:13.457Z,12.97
2019-02-18T20:54:42.092Z,12.10
2019-02-18T20:57:10.905Z,12.30
2019-02-18T20:59:39.534Z,12.47
2019-02-18T21:02:08.564Z,11.03
2019-02-18T21:04:37.233Z,12.00
2019-02-18T21:07:06.140Z,11.30
2019-02-18T21:09:34.873Z,11.23
2019-02-18T21:12:03.498Z,11.80
2019-02-18T21:14:32.243Z,11.40
2019-02-18T21:17:01.485Z,12.23
2019-02-18T21:19:30.079Z,11.83
2019-02-18T21:21:59.124Z,11.20
2019-02-18T21:24:27.794Z,11.70
2019-02-18T21:26:56.416Z,11.20
2019-02-18T21:29:25.028Z,11.50
2019-02-18T21:31:53.768Z,11.20
2019-02-18T21:34:22.638Z,10.50
